createdAt,value
2022-11-29T00:01:40.338Z,97836.19
2022-11-29T00:04:08.824Z,97843.56
2022-11-29T00:06:37.221Z,97840.75
2022-11-29T00:09:11.814Z,97842.97
2022-11-29T00:11:59.360Z,97845.25
2022-11-29T00:14:28.025Z,97843.84
2022-11-29T00:17:04.607Z,97834.47
2022-11-29T00:19:33.795Z,97846.16
2022-11-29T00:22:02.470Z,97844.19
2022-11-29T00:24:32.750Z,97844.97
2022-11-29T00:27:01.286Z,97844.69
2022-11-29T00:29:30.172Z,97852.75
2022-11-29T00:31:58.750Z,97845.78
2022-11-29T00:34:27.353Z,97846.97
2022-11-29T00:36:55.680Z,97840.25
2022-11-29T00:39:24.011Z,97849.75
2022-11-29T00:41:52.370Z,97848.66
2022-11-29T00:44:20.901Z,97852.47
2022-11-29T00:46:49.435Z,97848.03
2022-11-29T00:49:17.867Z,97862.09
2022-11-29T00:51:46.893Z,97846.00
2022-11-29T00:54:16.110Z,97845.94
2022-11-29T00:56:44.520Z,97850.94
2022-11-29T00:59:12.891Z,97851.72
2022-11-29T01:01:41.414Z,97853.69
2022-11-29T01:04:09.752Z,97842.09
2022-11-29T01:06:38.658Z,97850.59
2022-11-29T01:09:06.881Z,97848.53
2022-11-29T01:11:35.425Z,97850.38
2022-11-29T01:14:03.983Z,97853.00
2022-11-29T01:16:33.032Z,97850.69
2022-11-29T01:19:01.977Z,97844.41
2022-11-29T01:21:30.481Z,97842.09
2022-11-29T01:23:59.558Z,97836.88
2022-11-29T01:26:29.410Z,97843.84
2022-11-29T01:28:58.020Z,97846.50
2022-11-29T01:31:37.940Z,97840.88
2022-11-29T01:34:06.759Z,97837.34
2022-11-29T01:36:35.521Z,97847.44
2022-11-29T01:39:04.794Z,97847.31
2022-11-29T01:41:34.241Z,97835.31
2022-11-29T01:44:15.521Z,97845.63
2022-11-29T01:46:45.311Z,97841.97
2022-11-29T01:49:18.336Z,97837.81
2022-11-29T01:51:56.843Z,97845.16
2022-11-29T01:54:25.330Z,97836.38
2022-11-29T01:56:53.705Z,97829.56
2022-11-29T01:59:24.432Z,97833.66
2022-11-29T02:01:53.426Z,97828.41
2022-11-29T02:04:21.674Z,97830.72
2022-11-29T02:06:50.056Z,97824.75
2022-11-29T02:09:22.779Z,97820.78
2022-11-29T02:11:55.531Z,97818.38
2022-11-29T02:14:57.721Z,97820.72
2022-11-29T02:18:10.736Z,97827.38
2022-11-29T02:21:03.481Z,97812.69
2022-11-29T02:23:56.357Z,97816.44
2022-11-29T02:27:02.082Z,97822.25
2022-11-29T02:30:07.222Z,97819.13
2022-11-29T02:32:56.880Z,97817.25
2022-11-29T02:35:37.753Z,97821.19
2022-11-29T02:38:21.827Z,97823.34
2022-11-29T02:41:26.516Z,97825.66
2022-11-29T02:44:16.125Z,97830.16
2022-11-29T02:46:57.241Z,97823.63
2022-11-29T02:49:55.032Z,97829.63
2022-11-29T02:52:54.739Z,97820.28
2022-11-29T02:55:41.262Z,97818.00
2022-11-29T02:58:13.958Z,97821.72
2022-11-29T03:00:47.532Z,97828.56
2022-11-29T03:03:21.956Z,97828.75
2022-11-29T03:05:58.296Z,97832.56
2022-11-29T03:08:55.959Z,97834.72
2022-11-29T03:11:30.117Z,97836.81
2022-11-29T03:14:24.915Z,97826.06
2022-11-29T03:17:14.411Z,97832.31
2022-11-29T03:20:09.001Z,97831.63
2022-11-29T03:23:08.277Z,97841.88
2022-11-29T03:25:50.420Z,97841.19
2022-11-29T03:28:21.596Z,97837.31
2022-11-29T03:31:14.412Z,97843.50
2022-11-29T03:34:05.261Z,97839.69
2022-11-29T03:36:40.834Z,97837.53
2022-11-29T03:39:18.010Z,97845.72
2022-11-29T03:41:52.685Z,97843.88
2022-11-29T03:44:28.538Z,97833.97
2022-11-29T03:47:07.274Z,97842.09
2022-11-29T03:49:55.051Z,97846.63
2022-11-29T03:52:49.921Z,97844.81
2022-11-29T03:55:48.446Z,97849.47
2022-11-29T03:58:34.646Z,97851.84
2022-11-29T04:01:24.973Z,97837.75
2022-11-29T04:04:24.185Z,97845.69
2022-11-29T04:07:01.412Z,97846.78
2022-11-29T04:09:36.040Z,97851.94
2022-11-29T04:12:04.391Z,97851.22
2022-11-29T04:15:03.407Z,97857.41
2022-11-29T04:17:53.467Z,97862.16
2022-11-29T04:20:48.041Z,97858.72
2022-11-29T04:23:47.600Z,97857.72
2022-11-29T04:26:34.798Z,97852.19
2022-11-29T04:29:33.401Z,97858.97
2022-11-29T04:32:20.591Z,97863.88
2022-11-29T04:35:26.580Z,97861.31
2022-11-29T04:38:07.528Z,97865.81
2022-11-29T04:41:01.960Z,97862.47
2022-11-29T04:43:51.187Z,97866.00
2022-11-29T04:46:38.412Z,97867.31
2022-11-29T04:49:24.331Z,97861.31
2022-11-29T04:52:14.484Z,97858.44
2022-11-29T04:54:58.240Z,97861.34
2022-11-29T04:57:45.051Z,97863.31
2022-11-29T05:00:19.167Z,97863.66
2022-11-29T05:03:08.152Z,97862.44
2022-11-29T05:05:41.786Z,97865.66
2022-11-29T05:08:29.698Z,97863.56
2022-11-29T05:11:39.526Z,97873.00
2022-11-29T05:14:25.499Z,97870.19
2022-11-29T05:17:27.600Z,97864.19
2022-11-29T05:20:25.228Z,97873.84
2022-11-29T05:22:58.950Z,97871.16
2022-11-29T05:25:38.180Z,97879.66
2022-11-29T05:28:13.711Z,97881.94
2022-11-29T05:31:20.821Z,97886.16
2022-11-29T05:34:01.174Z,97889.47
2022-11-29T05:36:41.351Z,97886.25
2022-11-29T05:39:38.678Z,97876.03
2022-11-29T05:42:20.626Z,97883.75
2022-11-29T05:44:56.473Z,97882.91
2022-11-29T05:47:31.629Z,97881.25
2022-11-29T05:50:36.011Z,97894.16
2022-11-29T05:53:22.505Z,97879.75
2022-11-29T05:55:53.860Z,97893.75
2022-11-29T05:58:34.320Z,97885.81
2022-11-29T06:01:07.491Z,97893.28
2022-11-29T06:03:52.020Z,97890.53
2022-11-29T06:06:30.177Z,97892.63
2022-11-29T06:09:28.760Z,97900.63
2022-11-29T06:12:05.702Z,97885.25
2022-11-29T06:14:39.833Z,97889.13
2022-11-29T06:17:18.842Z,97890.53
2022-11-29T06:19:58.963Z,97890.47
2022-11-29T06:22:59.645Z,97886.25
2022-11-29T06:25:42.981Z,97895.84
2022-11-29T06:28:47.655Z,97883.72
2022-11-29T06:31:30.403Z,97890.13
2022-11-29T06:34:11.353Z,97882.06
2022-11-29T06:36:44.420Z,97887.16
2022-11-29T06:39:13.109Z,97889.72
2022-11-29T06:41:41.409Z,97887.25
2022-11-29T06:44:10.799Z,97885.59
2022-11-29T06:46:43.086Z,97884.13
2022-11-29T06:49:35.481Z,97889.13
2022-11-29T06:52:28.731Z,97903.38
2022-11-29T06:55:07.967Z,97901.81
2022-11-29T06:57:57.928Z,97896.00
2022-11-29T07:00:42.683Z,97898.31
2022-11-29T07:03:20.274Z,97891.44
2022-11-29T07:05:48.810Z,97891.34
2022-11-29T07:08:21.688Z,97900.03
2022-11-29T07:10:53.460Z,97892.06
2022-11-29T07:13:22.266Z,97894.50
2022-11-29T07:16:02.788Z,97892.69
2022-11-29T07:18:39.878Z,97899.91
2022-11-29T07:21:17.339Z,97900.69
2022-11-29T07:24:07.231Z,97906.22
2022-11-29T07:27:08.821Z,97904.28
2022-11-29T07:29:53.979Z,97901.94
2022-11-29T07:32:34.578Z,97902.03
2022-11-29T07:35:05.331Z,97900.47
2022-11-29T07:38:01.145Z,97902.72
2022-11-29T07:40:49.720Z,97909.50
2022-11-29T07:43:39.290Z,97900.59
2022-11-29T07:46:08.250Z,97909.53
2022-11-29T07:48:36.627Z,97909.75
2022-11-29T07:51:04.989Z,97903.63
2022-11-29T07:53:33.384Z,97903.84
2022-11-29T07:56:01.702Z,97912.66
2022-11-29T07:58:30.125Z,97910.31
2022-11-29T08:00:58.428Z,97912.38
2022-11-29T08:03:26.871Z,97914.84
2022-11-29T08:05:55.274Z,97916.38
2022-11-29T08:08:23.699Z,97913.19
2022-11-29T08:10:52.007Z,97909.88
2022-11-29T08:13:21.430Z,97910.31
2022-11-29T08:15:49.741Z,97910.03
2022-11-29T08:18:18.268Z,97911.63
2022-11-29T08:20:46.698Z,97913.19
2022-11-29T08:23:15.439Z,97924.41
2022-11-29T08:25:46.171Z,97914.72
2022-11-29T08:28:14.635Z,97910.81
2022-11-29T08:30:43.741Z,97920.09
2022-11-29T08:33:12.155Z,97913.41
2022-11-29T08:35:42.452Z,97911.22
2022-11-29T08:38:10.854Z,97905.00
2022-11-29T08:40:39.348Z,97910.63
2022-11-29T08:43:07.668Z,97897.69
2022-11-29T08:45:36.103Z,97902.44
2022-11-29T08:48:04.822Z,97903.75
2022-11-29T08:50:33.122Z,97900.50
2022-11-29T08:53:19.962Z,97901.41
2022-11-29T08:55:48.414Z,97902.34
2022-11-29T08:58:17.357Z,97892.41
2022-11-29T09:00:47.338Z,97896.41
2022-11-29T09:03:34.659Z,97896.06
2022-11-29T09:06:21.721Z,97898.88
2022-11-29T09:08:50.164Z,97906.84
2022-11-29T09:11:21.289Z,97907.34
2022-11-29T09:13:56.156Z,97907.84
2022-11-29T09:16:26.326Z,97898.03
2022-11-29T09:18:56.132Z,97894.41
2022-11-29T09:21:25.417Z,97892.41
2022-11-29T09:23:59.919Z,97886.56
2022-11-29T09:26:32.814Z,97884.91
2022-11-29T09:29:02.140Z,97880.47
2022-11-29T09:31:31.105Z,97885.91
2022-11-29T09:33:59.508Z,97883.75
2022-11-29T09:36:29.329Z,97889.09
2022-11-29T09:38:58.430Z,97883.84
2022-11-29T09:41:26.703Z,97881.38
2022-11-29T09:44:28.563Z,97875.19
2022-11-29T09:47:26.978Z,97874.06
2022-11-29T09:49:55.222Z,97865.84
2022-11-29T09:52:38.448Z,97867.03
2022-11-29T09:55:21.464Z,97863.22
2022-11-29T09:57:49.770Z,97871.00
2022-11-29T10:00:21.318Z,97871.50
2022-11-29T10:02:55.765Z,97862.53
2022-11-29T10:05:41.281Z,97860.81
2022-11-29T10:08:16.319Z,97855.41
2022-11-29T10:10:49.242Z,97855.88
2022-11-29T10:13:47.435Z,97853.91
2022-11-29T10:16:28.969Z,97861.25
2022-11-29T10:19:15.466Z,97860.03
2022-11-29T10:21:47.335Z,97858.44
2022-11-29T10:24:18.635Z,97856.53
2022-11-29T10:26:47.121Z,97864.22
2022-11-29T10:29:16.973Z,97858.53
2022-11-29T10:31:49.740Z,97857.25
2022-11-29T10:34:22.895Z,97864.28
2022-11-29T10:37:02.973Z,97861.34
2022-11-29T10:39:44.329Z,97857.59
2022-11-29T10:42:35.905Z,97856.63
2022-11-29T10:45:06.386Z,97860.38
2022-11-29T10:47:34.794Z,97858.53
2022-11-29T10:50:03.157Z,97855.19
2022-11-29T10:52:31.485Z,97852.31
2022-11-29T10:55:00.131Z,97845.38
2022-11-29T10:57:28.654Z,97845.72
2022-11-29T11:00:10.950Z,97842.91
2022-11-29T11:02:39.299Z,97835.84
2022-11-29T11:05:19.665Z,97848.97
2022-11-29T11:07:55.818Z,97839.03
2022-11-29T11:10:28.631Z,97840.31
2022-11-29T11:13:11.121Z,97832.03
2022-11-29T11:15:39.813Z,97835.22
2022-11-29T11:18:15.489Z,97835.19
2022-11-29T11:20:44.631Z,97838.28
2022-11-29T11:23:27.820Z,97831.44
2022-11-29T11:26:02.181Z,97838.88
2022-11-29T11:28:50.792Z,97832.97
2022-11-29T11:31:30.334Z,97826.19
2022-11-29T11:34:18.721Z,97836.97
2022-11-29T11:36:47.142Z,97830.78
2022-11-29T11:39:20.576Z,97827.06
2022-11-29T11:42:07.937Z,97830.34
2022-11-29T11:44:48.965Z,97835.81
2022-11-29T11:47:28.572Z,97832.88
2022-11-29T11:50:28.541Z,97826.19
2022-11-29T11:53:27.875Z,97832.72
2022-11-29T11:56:01.621Z,97823.47
2022-11-29T11:58:30.829Z,97819.31
2022-11-29T12:01:12.247Z,97823.03
2022-11-29T12:04:12.201Z,97824.16
2022-11-29T12:06:45.358Z,97825.25
2022-11-29T12:09:35.218Z,97821.78
2022-11-29T12:12:18.209Z,97825.41
2022-11-29T12:15:11.355Z,97818.97
2022-11-29T12:17:49.316Z,97824.34
2022-11-29T12:20:39.097Z,97818.09
2022-11-29T12:23:13.651Z,97812.53
2022-11-29T12:26:03.179Z,97816.13
2022-11-29T12:28:36.231Z,97812.44
2022-11-29T12:31:43.494Z,97824.63
2022-11-29T12:34:33.792Z,97824.72
2022-11-29T12:37:17.389Z,97822.88
2022-11-29T12:40:05.791Z,97826.34
2022-11-29T12:42:57.858Z,97823.25
2022-11-29T12:45:32.327Z,97825.81
2022-11-29T12:48:23.202Z,97825.47
2022-11-29T12:51:15.967Z,97816.50
2022-11-29T12:54:03.453Z,97821.78
2022-11-29T12:56:40.346Z,97821.97
2022-11-29T12:59:32.683Z,97827.97
2022-11-29T13:02:29.281Z,97822.81
2022-11-29T13:05:16.296Z,97823.22
2022-11-29T13:07:58.435Z,97829.56
2022-11-29T13:10:35.194Z,97828.72
2022-11-29T13:13:07.704Z,97832.13
2022-11-29T13:15:40.948Z,97824.56
2022-11-29T13:18:35.412Z,97828.69
2022-11-29T13:21:31.827Z,97828.75
2022-11-29T13:24:09.036Z,97829.63
2022-11-29T13:26:41.464Z,97832.22
2022-11-29T13:29:14.602Z,97827.00
2022-11-29T13:31:43.224Z,97834.84
2022-11-29T13:34:39.972Z,97833.44
2022-11-29T13:37:22.220Z,97839.34
2022-11-29T13:40:06.005Z,97836.25
2022-11-29T13:42:46.995Z,97824.97
2022-11-29T13:45:26.399Z,97841.19
2022-11-29T13:47:59.028Z,97849.59
2022-11-29T13:50:37.359Z,97841.81
2022-11-29T13:53:20.076Z,97848.34
2022-11-29T13:56:06.710Z,97843.50
2022-11-29T13:58:36.894Z,97852.94
2022-11-29T14:01:10.464Z,97851.16
2022-11-29T14:03:50.529Z,97849.66
2022-11-29T14:06:22.242Z,97849.25
2022-11-29T14:09:18.310Z,97845.88
2022-11-29T14:11:53.007Z,97838.13
2022-11-29T14:14:49.945Z,97843.75
2022-11-29T14:17:47.267Z,97848.28
2022-11-29T14:20:28.971Z,97846.41
2022-11-29T14:23:06.625Z,97850.72
2022-11-29T14:25:51.808Z,97849.84
2022-11-29T14:28:23.492Z,97851.94
2022-11-29T14:30:52.532Z,97852.56
2022-11-29T14:33:51.901Z,97856.38
2022-11-29T14:36:23.531Z,97847.91
2022-11-29T14:39:19.981Z,97851.69
2022-11-29T14:41:51.346Z,97842.41
2022-11-29T14:44:31.869Z,97845.28
2022-11-29T14:47:37.486Z,97856.06
2022-11-29T14:50:09.193Z,97851.78
2022-11-29T14:52:40.993Z,97838.69
2022-11-29T14:55:18.175Z,97839.16
2022-11-29T14:58:04.338Z,97844.59
2022-11-29T15:00:35.843Z,97839.41
2022-11-29T15:03:16.691Z,97850.97
2022-11-29T15:06:08.978Z,97856.34
2022-11-29T15:08:50.426Z,97853.31
2022-11-29T15:11:33.291Z,97849.78
2022-11-29T15:14:20.790Z,97850.72
2022-11-29T15:17:08.179Z,97853.66
2022-11-29T15:19:36.413Z,97850.28
2022-11-29T15:22:19.839Z,97854.44
2022-11-29T15:24:56.181Z,97858.56
2022-11-29T15:27:26.023Z,97858.44
2022-11-29T15:29:55.135Z,97861.59
2022-11-29T15:32:26.855Z,97860.16
2022-11-29T15:34:56.386Z,97869.56
2022-11-29T15:37:45.769Z,97861.69
2022-11-29T15:40:26.495Z,97853.75
2022-11-29T15:43:14.817Z,97858.19
2022-11-29T15:45:54.781Z,97869.47
2022-11-29T15:48:28.312Z,97855.31
2022-11-29T15:51:08.796Z,97859.06
2022-11-29T15:54:00.358Z,97864.34
2022-11-29T15:56:59.379Z,97871.66
2022-11-29T15:59:34.830Z,97862.63
2022-11-29T16:02:14.546Z,97874.06
2022-11-29T16:04:46.874Z,97873.00
2022-11-29T16:07:16.150Z,97871.16
2022-11-29T16:09:49.186Z,97870.78
2022-11-29T16:12:18.865Z,97884.28
2022-11-29T16:14:56.973Z,97876.94
2022-11-29T16:17:26.481Z,97876.66
2022-11-29T16:20:16.990Z,97869.63
2022-11-29T16:22:45.962Z,97875.72
2022-11-29T16:25:20.288Z,97883.44
2022-11-29T16:27:49.371Z,97880.41
2022-11-29T16:30:22.012Z,97880.63
2022-11-29T16:33:01.451Z,97886.13
2022-11-29T16:35:32.074Z,97879.38
2022-11-29T16:38:05.674Z,97882.22
2022-11-29T16:40:35.797Z,97886.75
2022-11-29T16:43:28.379Z,97886.44
2022-11-29T16:46:22.880Z,97884.00
2022-11-29T16:48:55.166Z,97885.66
2022-11-29T16:51:46.572Z,97885.00
2022-11-29T16:54:25.841Z,97889.66
2022-11-29T16:56:55.110Z,97887.22
2022-11-29T16:59:27.809Z,97888.38
2022-11-29T17:01:57.071Z,97895.91
2022-11-29T17:04:27.108Z,97897.84
2022-11-29T17:06:56.995Z,97900.84
2022-11-29T17:09:30.720Z,97897.47
2022-11-29T17:12:00.197Z,97887.47
2022-11-29T17:14:31.416Z,97888.88
2022-11-29T17:17:02.572Z,97898.84
2022-11-29T17:19:31.199Z,97893.06
2022-11-29T17:21:59.981Z,97895.53
2022-11-29T17:24:29.511Z,97892.19
2022-11-29T17:26:57.992Z,97893.97
2022-11-29T17:29:26.430Z,97890.13
2022-11-29T17:31:54.910Z,97896.59
2022-11-29T17:34:25.412Z,97899.69
2022-11-29T17:36:54.909Z,97906.03
2022-11-29T17:39:24.991Z,97900.25
2022-11-29T17:41:53.459Z,97905.81
2022-11-29T17:44:21.871Z,97907.06
2022-11-29T17:46:50.370Z,97907.91
2022-11-29T17:49:20.827Z,97903.44
2022-11-29T17:51:52.863Z,97906.34
2022-11-29T17:54:22.594Z,97913.09
2022-11-29T17:56:52.181Z,97911.38
2022-11-29T17:59:21.322Z,97923.59
2022-11-29T18:01:51.379Z,97918.84
2022-11-29T18:04:25.453Z,97918.19
2022-11-29T18:06:53.996Z,97906.94
2022-11-29T18:09:22.641Z,97915.63
2022-11-29T18:11:51.182Z,97920.16
2022-11-29T18:14:28.473Z,97918.91
2022-11-29T18:16:57.086Z,97914.31
2022-11-29T18:19:25.929Z,97913.06
2022-11-29T18:21:55.012Z,97923.16
2022-11-29T18:24:24.075Z,97915.75
2022-11-29T18:26:52.483Z,97915.94
2022-11-29T18:29:21.898Z,97920.22
2022-11-29T18:31:52.026Z,97913.31
2022-11-29T18:34:20.343Z,97916.81
2022-11-29T18:36:49.213Z,97928.38
2022-11-29T18:39:19.631Z,97925.47
2022-11-29T18:41:49.112Z,97925.41
2022-11-29T18:44:20.307Z,97913.53
2022-11-29T18:46:48.988Z,97912.16
2022-11-29T18:49:18.228Z,97924.50
2022-11-29T18:51:47.306Z,97914.38
2022-11-29T18:54:18.013Z,97922.75
2022-11-29T18:56:48.102Z,97919.22
2022-11-29T18:59:18.260Z,97920.50
2022-11-29T19:01:48.751Z,97923.88
2022-11-29T19:04:21.234Z,97921.94
2022-11-29T19:06:49.693Z,97918.38
2022-11-29T19:09:23.490Z,97922.28
2022-11-29T19:11:54.753Z,97917.19
2022-11-29T19:14:24.216Z,97916.97
2022-11-29T19:16:52.683Z,97920.09
2022-11-29T19:19:21.455Z,97928.69
2022-11-29T19:21:50.760Z,97932.41
2022-11-29T19:24:20.405Z,97927.34
2022-11-29T19:26:50.212Z,97927.06
2022-11-29T19:29:19.481Z,97929.38
2022-11-29T19:31:48.036Z,97929.31
2022-11-29T19:34:17.793Z,97932.25
2022-11-29T19:36:46.360Z,97931.16
2022-11-29T19:39:17.022Z,97928.16
2022-11-29T19:41:48.972Z,97929.63
2022-11-29T19:44:19.151Z,97937.94
2022-11-29T19:46:49.431Z,97931.91
2022-11-29T19:49:19.792Z,97932.09
2022-11-29T19:51:50.806Z,97921.16
2022-11-29T19:54:24.391Z,97926.91
2022-11-29T19:56:55.543Z,97924.16
2022-11-29T19:59:25.558Z,97924.69
2022-11-29T20:01:54.107Z,97917.63
2022-11-29T20:04:24.701Z,97917.41
2022-11-29T20:06:54.994Z,97910.16
2022-11-29T20:09:24.652Z,97914.31
2022-11-29T20:11:53.000Z,97918.84
2022-11-29T20:14:21.571Z,97917.59
2022-11-29T20:16:50.116Z,97900.34
2022-11-29T20:19:19.546Z,97913.81
2022-11-29T20:21:49.089Z,97908.38
2022-11-29T20:24:21.097Z,97912.00
2022-11-29T20:26:49.643Z,97915.25
2022-11-29T20:29:19.641Z,97913.50
2022-11-29T20:31:50.969Z,97917.53
2022-11-29T20:34:29.135Z,97914.22
2022-11-29T20:37:12.165Z,97911.63
2022-11-29T20:40:00.027Z,97905.25
2022-11-29T20:42:46.948Z,97905.94
2022-11-29T20:45:16.040Z,97904.94
2022-11-29T20:47:52.370Z,97899.75
2022-11-29T20:50:23.718Z,97896.19
2022-11-29T20:53:07.828Z,97899.09
2022-11-29T20:55:44.834Z,97907.25
2022-11-29T20:58:16.092Z,97899.84
2022-11-29T21:00:44.482Z,97910.31
2022-11-29T21:03:17.159Z,97908.09
2022-11-29T21:05:46.601Z,97907.16
2022-11-29T21:08:15.852Z,97910.31
2022-11-29T21:10:44.328Z,97906.88
2022-11-29T21:13:13.233Z,97902.00
2022-11-29T21:15:42.812Z,97902.50
2022-11-29T21:18:24.728Z,97909.19
2022-11-29T21:21:05.060Z,97897.81
2022-11-29T21:23:39.231Z,97893.88
2022-11-29T21:26:08.479Z,97893.28
2022-11-29T21:28:39.766Z,97900.88
2022-11-29T21:31:12.265Z,97896.53
2022-11-29T21:33:41.482Z,97906.22
2022-11-29T21:36:10.175Z,97907.22
2022-11-29T21:38:38.583Z,97905.84
2022-11-29T21:41:08.163Z,97902.94
2022-11-29T21:44:04.782Z,97908.97
2022-11-29T21:46:25.670Z,97908.84
2022-11-29T21:48:54.147Z,97904.16
2022-11-29T21:51:22.495Z,97917.53
2022-11-29T21:53:50.929Z,97917.84
2022-11-29T21:56:20.725Z,97912.81
2022-11-29T21:58:49.235Z,97912.09
2022-11-29T22:01:19.385Z,97911.66
2022-11-29T22:03:48.632Z,97911.81
2022-11-29T22:06:20.794Z,97912.56
2022-11-29T22:08:49.234Z,97906.84
2022-11-29T22:11:31.172Z,97907.41
2022-11-29T22:14:14.252Z,97908.16
2022-11-29T22:16:59.325Z,97903.50
2022-11-29T22:19:36.420Z,97907.63
2022-11-29T22:22:05.910Z,97900.06
2022-11-29T22:24:35.678Z,97910.50
2022-11-29T22:27:04.176Z,97905.88
2022-11-29T22:29:32.612Z,97895.81
2022-11-29T22:32:01.529Z,97899.00
2022-11-29T22:34:29.933Z,97897.16
2022-11-29T22:36:58.325Z,97893.28
2022-11-29T22:39:26.870Z,97895.06
2022-11-29T22:41:55.493Z,97894.84
2022-11-29T22:44:24.160Z,97880.63
2022-11-29T22:46:52.669Z,97882.09
2022-11-29T22:49:21.090Z,97882.44
2022-11-29T22:51:49.495Z,97884.00
2022-11-29T22:54:19.023Z,97876.06
2022-11-29T22:56:47.480Z,97887.13
2022-11-29T22:59:15.772Z,97875.44
2022-11-29T23:01:44.278Z,97866.13
2022-11-29T23:04:12.833Z,97865.84
2022-11-29T23:06:43.062Z,97863.41
2022-11-29T23:09:21.542Z,97858.97
2022-11-29T23:11:54.364Z,97854.31
2022-11-29T23:14:23.004Z,97858.69
2022-11-29T23:16:51.681Z,97845.97
2022-11-29T23:19:20.114Z,97856.91
2022-11-29T23:21:48.484Z,97848.34
2022-11-29T23:24:16.972Z,97854.31
2022-11-29T23:26:46.369Z,97851.19
2022-11-29T23:29:16.518Z,97850.66
2022-11-29T23:31:45.370Z,97845.59
2022-11-29T23:34:13.874Z,97845.44
2022-11-29T23:36:42.255Z,97857.47
2022-11-29T23:39:11.383Z,97856.38
2022-11-29T23:41:40.345Z,97860.91
2022-11-29T23:44:09.704Z,97857.91
2022-11-29T23:46:38.040Z,97850.66
2022-11-29T23:49:06.414Z,97848.88
2022-11-29T23:51:34.766Z,97855.16
2022-11-29T23:54:03.037Z,97850.88
2022-11-29T23:56:35.692Z,97854.34
2022-11-29T23:59:04.173Z,97862.56
